| Date | Time | Temp. (oF) | Dew Point (oF) | Rel. Hum. (%) | Press. (in.) | Wind Dir. | Wind Speed (mph) | Hourly Rainfall (in.) |
|
|---|---|---|---|---|---|---|---|---|---|
| 1 | 08/18 | 00:00 | 80 | 71 | 76 | 29.95 | SSW | 1 | 0.00 |
| 2 | 08/17 | 23:00 | 82 | 72 | 74 | 29.96 | SSW | 1 | 0.00 |
| 3 | 08/17 | 22:00 | 83 | 72 | 70 | 29.95 | SW | 1 | 0.00 |
| 4 | 08/17 | 21:00 | 85 | 70 | 63 | 29.95 | SSW | 1 | 0.00 |
| 5 | 08/17 | 20:00 | 87 | 70 | 58 | 29.95 | WSW | 1 | 0.00 |
| 6 | 08/17 | 19:00 | 89 | 72 | 58 | 29.94 | SSW | 5 | 0.00 |
| 7 | 08/17 | 18:00 | 90 | 72 | 56 | 29.94 | S | 3 | 0.00 |
| 8 | 08/17 | 17:00 | 90 | 70 | 53 | 29.94 | S | 8 | 0.00 |
| 9 | 08/17 | 16:00 | 86 | 70 | 60 | 29.98 | S | 4 | 0.00 |
| 10 | 08/17 | 15:00 | 92 | 69 | 48 | 29.99 | W | 6 | 0.00 |
| 11 | 08/17 | 14:00 | 92 | 70 | 50 | 30.02 | NW | 2 | 0.00 |
| 12 | 08/17 | 13:00 | 93 | 68 | 46 | 30.03 | SW | 4 | 0.00 |
| 13 | 08/17 | 12:00 | 91 | 70 | 51 | 30.05 | WNW | 2 | 0.00 |
| 14 | 08/17 | 11:00 | 88 | 70 | 57 | 30.06 | SW | 1 | 0.00 |
| 15 | 08/17 | 10:00 | 86 | 70 | 60 | 30.06 | SW | 2 | 0.00 |
| 16 | 08/17 | 09:00 | 83 | 70 | 66 | 30.08 | W | 5 | 0.00 |
| 17 | 08/17 | 08:00 | 78 | 70 | 78 | 30.09 | SW | 2 | 0.00 |
| 18 | 08/17 | 07:00 | 76 | 68 | 79 | 30.08 | WNW | 0 | 0.00 |
| 19 | 08/17 | 06:00 | 75 | 68 | 81 | 30.07 | SW | 1 | 0.00 |
| 20 | 08/17 | 05:00 | 77 | 69 | 77 | 30.06 | WSW | 2 | 0.00 |
| 21 | 08/17 | 04:00 | 77 | 68 | 76 | 30.06 | WNW | 0 | 0.00 |
| 22 | 08/17 | 03:00 | 77 | 68 | 76 | 30.08 | SW | 2 | 0.00 |
| 23 | 08/17 | 02:00 | 79 | 69 | 72 | 30.08 | SSW | 2 | 0.00 |
| 24 | 08/17 | 01:00 | 80 | 69 | 71 | 30.08 | WSW | 3 | 0.00 |